sensor_id;sensor_type;location;lat;lon;timestamp;P1;durP1;ratioP1;P2;durP2;ratioP2
72920;SDS011;61064;51.654;5.476;2023-02-21T00:02:26;43.38;;;18.48;;
72920;SDS011;61064;51.654;5.476;2023-02-21T00:05:10;40.08;;;17.58;;
72920;SDS011;61064;51.654;5.476;2023-02-21T00:07:54;50.27;;;19.90;;
72920;SDS011;61064;51.654;5.476;2023-02-21T00:10:38;52.00;;;21.08;;
72920;SDS011;61064;51.654;5.476;2023-02-21T00:13:22;56.97;;;23.10;;
72920;SDS011;61064;51.654;5.476;2023-02-21T00:16:06;62.03;;;24.80;;
72920;SDS011;61064;51.654;5.476;2023-02-21T00:18:50;66.43;;;24.50;;
72920;SDS011;61064;51.654;5.476;2023-02-21T00:21:34;65.53;;;25.67;;
72920;SDS011;61064;51.654;5.476;2023-02-21T00:24:18;65.07;;;24.63;;
72920;SDS011;61064;51.654;5.476;2023-02-21T00:27:02;62.20;;;24.00;;
72920;SDS011;61064;51.654;5.476;2023-02-21T00:29:47;55.15;;;22.83;;
72920;SDS011;61064;51.654;5.476;2023-02-21T00:32:32;49.78;;;20.10;;
72920;SDS011;61064;51.654;5.476;2023-02-21T00:35:19;45.63;;;18.83;;
72920;SDS011;61064;51.654;5.476;2023-02-21T00:38:03;43.50;;;19.25;;
72920;SDS011;61064;51.654;5.476;2023-02-21T00:40:47;45.80;;;19.35;;
72920;SDS011;61064;51.654;5.476;2023-02-21T00:43:34;44.28;;;18.80;;
72920;SDS011;61064;51.654;5.476;2023-02-21T00:46:18;51.97;;;19.83;;
72920;SDS011;61064;51.654;5.476;2023-02-21T00:49:06;45.97;;;19.43;;
72920;SDS011;61064;51.654;5.476;2023-02-21T00:51:50;44.50;;;19.33;;
72920;SDS011;61064;51.654;5.476;2023-02-21T00:54:34;50.05;;;19.92;;
72920;SDS011;61064;51.654;5.476;2023-02-21T00:57:18;45.85;;;18.88;;
72920;SDS011;61064;51.654;5.476;2023-02-21T01:00:03;45.85;;;17.85;;
72920;SDS011;61064;51.654;5.476;2023-02-21T01:02:49;46.97;;;19.20;;
72920;SDS011;61064;51.654;5.476;2023-02-21T01:05:33;41.90;;;18.35;;
72920;SDS011;61064;51.654;5.476;2023-02-21T01:08:20;46.40;;;16.90;;
72920;SDS011;61064;51.654;5.476;2023-02-21T01:11:04;41.90;;;17.25;;
72920;SDS011;61064;51.654;5.476;2023-02-21T01:13:48;39.53;;;17.33;;
72920;SDS011;61064;51.654;5.476;2023-02-21T01:16:32;39.07;;;16.40;;
72920;SDS011;61064;51.654;5.476;2023-02-21T01:19:16;41.30;;;17.83;;
72920;SDS011;61064;51.654;5.476;2023-02-21T01:22:02;43.28;;;17.15;;
72920;SDS011;61064;51.654;5.476;2023-02-21T01:24:50;44.10;;;17.30;;
72920;SDS011;61064;51.654;5.476;2023-02-21T01:27:37;45.97;;;17.73;;
72920;SDS011;61064;51.654;5.476;2023-02-21T01:30:21;44.33;;;17.27;;
72920;SDS011;61064;51.654;5.476;2023-02-21T01:33:05;43.08;;;17.08;;
72920;SDS011;61064;51.654;5.476;2023-02-21T01:35:49;44.05;;;17.88;;
72920;SDS011;61064;51.654;5.476;2023-02-21T01:38:33;42.72;;;17.85;;
72920;SDS011;61064;51.654;5.476;2023-02-21T01:41:18;42.72;;;17.83;;
72920;SDS011;61064;51.654;5.476;2023-02-21T01:44:04;38.07;;;16.13;;
72920;SDS011;61064;51.654;5.476;2023-02-21T01:47:12;41.42;;;15.95;;
72920;SDS011;61064;51.654;5.476;2023-02-21T01:49:57;40.50;;;16.75;;
72920;SDS011;61064;51.654;5.476;2023-02-21T01:52:43;40.90;;;16.45;;
72920;SDS011;61064;51.654;5.476;2023-02-21T01:55:28;43.08;;;17.35;;
72920;SDS011;61064;51.654;5.476;2023-02-21T01:58:12;39.53;;;16.43;;
72920;SDS011;61064;51.654;5.476;2023-02-21T02:00:56;42.42;;;16.38;;
72920;SDS011;61064;51.654;5.476;2023-02-21T02:03:40;42.67;;;17.40;;
72920;SDS011;61064;51.654;5.476;2023-02-21T02:06:24;44.13;;;16.92;;
72920;SDS011;61064;51.654;5.476;2023-02-21T02:09:13;45.08;;;16.92;;
72920;SDS011;61064;51.654;5.476;2023-02-21T02:19:54;45.67;;;17.37;;
72920;SDS011;61064;51.654;5.476;2023-02-21T02:30:34;44.77;;;16.83;;
72920;SDS011;61064;51.654;5.476;2023-02-21T02:44:09;45.20;;;16.83;;
72920;SDS011;61064;51.654;5.476;2023-02-21T02:46:42;44.20;;;16.65;;
72920;SDS011;61064;51.654;5.476;2023-02-21T02:49:17;46.10;;;16.45;;
72920;SDS011;61064;51.654;5.476;2023-02-21T02:51:45;46.03;;;15.93;;
72920;SDS011;61064;51.654;5.476;2023-02-21T02:54:11;44.45;;;16.52;;
72920;SDS011;61064;51.654;5.476;2023-02-21T02:56:37;45.97;;;15.93;;
72920;SDS011;61064;51.654;5.476;2023-02-21T02:59:13;46.97;;;16.40;;
72920;SDS011;61064;51.654;5.476;2023-02-21T03:08:07;46.92;;;16.88;;
72920;SDS011;61064;51.654;5.476;2023-02-21T03:16:41;44.70;;;16.60;;
72920;SDS011;61064;51.654;5.476;2023-02-21T03:19:12;47.13;;;16.87;;
72920;SDS011;61064;51.654;5.476;2023-02-21T03:21:44;47.58;;;16.42;;
72920;SDS011;61064;51.654;5.476;2023-02-21T03:24:13;49.85;;;17.63;;
72920;SDS011;61064;51.654;5.476;2023-02-21T03:26:41;47.03;;;17.67;;
72920;SDS011;61064;51.654;5.476;2023-02-21T03:29:11;49.80;;;16.80;;
72920;SDS011;61064;51.654;5.476;2023-02-21T03:31:38;56.37;;;18.37;;
72920;SDS011;61064;51.654;5.476;2023-02-21T03:34:10;49.45;;;17.05;;
72920;SDS011;61064;51.654;5.476;2023-02-21T03:36:36;56.37;;;17.57;;
72920;SDS011;61064;51.654;5.476;2023-02-21T03:39:03;51.50;;;17.77;;
72920;SDS011;61064;51.654;5.476;2023-02-21T03:41:30;51.45;;;18.40;;
72920;SDS011;61064;51.654;5.476;2023-02-21T03:43:55;54.77;;;18.43;;
72920;SDS011;61064;51.654;5.476;2023-02-21T03:46:21;50.63;;;17.57;;
72920;SDS011;61064;51.654;5.476;2023-02-21T03:48:46;60.23;;;18.87;;
72920;SDS011;61064;51.654;5.476;2023-02-21T03:51:12;52.47;;;17.67;;
72920;SDS011;61064;51.654;5.476;2023-02-21T03:53:38;54.53;;;18.00;;
72920;SDS011;61064;51.654;5.476;2023-02-21T03:56:03;59.53;;;19.30;;
72920;SDS011;61064;51.654;5.476;2023-02-21T03:58:29;51.13;;;18.53;;
72920;SDS011;61064;51.654;5.476;2023-02-21T04:00:54;59.53;;;18.50;;
72920;SDS011;61064;51.654;5.476;2023-02-21T04:03:21;55.03;;;17.23;;
72920;SDS011;61064;51.654;5.476;2023-02-21T04:05:46;57.67;;;17.25;;
72920;SDS011;61064;51.654;5.476;2023-02-21T04:08:12;56.90;;;18.30;;
72920;SDS011;61064;51.654;5.476;2023-02-21T04:10:37;57.95;;;18.83;;
72920;SDS011;61064;51.654;5.476;2023-02-21T04:13:03;59.07;;;18.47;;
72920;SDS011;61064;51.654;5.476;2023-02-21T04:15:29;60.17;;;19.57;;
72920;SDS011;61064;51.654;5.476;2023-02-21T04:17:54;57.97;;;18.48;;
72920;SDS011;61064;51.654;5.476;2023-02-21T04:20:22;57.87;;;19.03;;
72920;SDS011;61064;51.654;5.476;2023-02-21T04:22:47;68.05;;;19.98;;
72920;SDS011;61064;51.654;5.476;2023-02-21T04:25:16;68.78;;;19.30;;
72920;SDS011;61064;51.654;5.476;2023-02-21T04:27:42;62.07;;;19.20;;
72920;SDS011;61064;51.654;5.476;2023-02-21T04:30:07;61.97;;;18.23;;
72920;SDS011;61064;51.654;5.476;2023-02-21T04:32:33;63.38;;;19.25;;
72920;SDS011;61064;51.654;5.476;2023-02-21T04:34:59;65.13;;;19.43;;
72920;SDS011;61064;51.654;5.476;2023-02-21T04:37:24;64.28;;;19.45;;
72920;SDS011;61064;51.654;5.476;2023-02-21T04:39:50;62.13;;;18.23;;
72920;SDS011;61064;51.654;5.476;2023-02-21T04:42:16;65.67;;;19.07;;
72920;SDS011;61064;51.654;5.476;2023-02-21T04:44:41;64.85;;;18.75;;
72920;SDS011;61064;51.654;5.476;2023-02-21T04:47:07;60.10;;;19.13;;
72920;SDS011;61064;51.654;5.476;2023-02-21T04:49:34;68.73;;;19.87;;
72920;SDS011;61064;51.654;5.476;2023-02-21T04:52:00;69.65;;;20.35;;
72920;SDS011;61064;51.654;5.476;2023-02-21T04:54:28;63.20;;;19.20;;
72920;SDS011;61064;51.654;5.476;2023-02-21T04:56:54;64.28;;;19.80;;
72920;SDS011;61064;51.654;5.476;2023-02-21T04:59:19;66.90;;;21.03;;
72920;SDS011;61064;51.654;5.476;2023-02-21T05:01:45;66.00;;;20.15;;
72920;SDS011;61064;51.654;5.476;2023-02-21T05:04:10;74.17;;;19.60;;
72920;SDS011;61064;51.654;5.476;2023-02-21T05:06:35;68.17;;;20.37;;
72920;SDS011;61064;51.654;5.476;2023-02-21T05:09:01;67.73;;;19.73;;
72920;SDS011;61064;51.654;5.476;2023-02-21T05:11:27;72.22;;;21.23;;
72920;SDS011;61064;51.654;5.476;2023-02-21T05:13:52;69.68;;;19.17;;
72920;SDS011;61064;51.654;5.476;2023-02-21T05:16:18;68.00;;;19.47;;
72920;SDS011;61064;51.654;5.476;2023-02-21T05:18:44;72.03;;;20.02;;
72920;SDS011;61064;51.654;5.476;2023-02-21T05:21:14;65.68;;;19.42;;
72920;SDS011;61064;51.654;5.476;2023-02-21T05:23:42;71.83;;;20.13;;
72920;SDS011;61064;51.654;5.476;2023-02-21T05:26:20;65.35;;;19.58;;
72920;SDS011;61064;51.654;5.476;2023-02-21T05:28:50;66.90;;;19.13;;
72920;SDS011;61064;51.654;5.476;2023-02-21T05:31:16;63.30;;;19.27;;
72920;SDS011;61064;51.654;5.476;2023-02-21T05:33:45;70.70;;;19.63;;
72920;SDS011;61064;51.654;5.476;2023-02-21T05:36:10;71.85;;;19.85;;
72920;SDS011;61064;51.654;5.476;2023-02-21T05:38:49;71.63;;;20.07;;
72920;SDS011;61064;51.654;5.476;2023-02-21T05:41:17;75.65;;;19.33;;
72920;SDS011;61064;51.654;5.476;2023-02-21T05:43:43;68.32;;;18.75;;
72920;SDS011;61064;51.654;5.476;2023-02-21T05:46:17;69.78;;;18.45;;
72920;SDS011;61064;51.654;5.476;2023-02-21T05:48:44;66.03;;;18.67;;
72920;SDS011;61064;51.654;5.476;2023-02-21T05:51:13;63.42;;;18.17;;
72920;SDS011;61064;51.654;5.476;2023-02-21T05:53:38;71.82;;;19.00;;
72920;SDS011;61064;51.654;5.476;2023-02-21T05:56:04;70.20;;;19.00;;
72920;SDS011;61064;51.654;5.476;2023-02-21T05:58:29;71.28;;;19.42;;
72920;SDS011;61064;51.654;5.476;2023-02-21T06:00:55;65.40;;;18.27;;
72920;SDS011;61064;51.654;5.476;2023-02-21T06:03:20;71.00;;;18.97;;
72920;SDS011;61064;51.654;5.476;2023-02-21T06:05:46;74.00;;;19.87;;
72920;SDS011;61064;51.654;5.476;2023-02-21T06:08:11;69.43;;;18.27;;
72920;SDS011;61064;51.654;5.476;2023-02-21T06:10:37;71.53;;;18.97;;
72920;SDS011;61064;51.654;5.476;2023-02-21T06:13:02;71.03;;;18.93;;
72920;SDS011;61064;51.654;5.476;2023-02-21T06:15:28;73.50;;;18.52;;
72920;SDS011;61064;51.654;5.476;2023-02-21T06:17:53;70.63;;;18.43;;
72920;SDS011;61064;51.654;5.476;2023-02-21T06:20:19;66.27;;;18.23;;
72920;SDS011;61064;51.654;5.476;2023-02-21T06:22:44;58.53;;;18.10;;
72920;SDS011;61064;51.654;5.476;2023-02-21T06:25:11;66.47;;;18.80;;
72920;SDS011;61064;51.654;5.476;2023-02-21T06:27:36;65.83;;;18.13;;
72920;SDS011;61064;51.654;5.476;2023-02-21T06:30:02;67.23;;;19.53;;
72920;SDS011;61064;51.654;5.476;2023-02-21T06:32:29;74.40;;;18.30;;
72920;SDS011;61064;51.654;5.476;2023-02-21T06:34:55;70.30;;;19.37;;
72920;SDS011;61064;51.654;5.476;2023-02-21T06:37:20;70.20;;;19.40;;
72920;SDS011;61064;51.654;5.476;2023-02-21T06:39:46;74.70;;;18.83;;
72920;SDS011;61064;51.654;5.476;2023-02-21T06:42:15;68.13;;;17.43;;
72920;SDS011;61064;51.654;5.476;2023-02-21T06:44:44;67.53;;;17.65;;
72920;SDS011;61064;51.654;5.476;2023-02-21T06:47:11;65.30;;;18.13;;
72920;SDS011;61064;51.654;5.476;2023-02-21T06:49:37;65.82;;;17.75;;
72920;SDS011;61064;51.654;5.476;2023-02-21T06:52:02;67.73;;;19.07;;
72920;SDS011;61064;51.654;5.476;2023-02-21T06:54:28;64.53;;;18.02;;
72920;SDS011;61064;51.654;5.476;2023-02-21T06:56:54;60.57;;;16.00;;
72920;SDS011;61064;51.654;5.476;2023-02-21T06:59:20;62.13;;;17.25;;
72920;SDS011;61064;51.654;5.476;2023-02-21T07:01:45;58.20;;;15.17;;
72920;SDS011;61064;51.654;5.476;2023-02-21T07:04:11;57.95;;;16.10;;
72920;SDS011;61064;51.654;5.476;2023-02-21T07:06:37;59.53;;;15.50;;
72920;SDS011;61064;51.654;5.476;2023-02-21T07:09:02;60.92;;;16.15;;
72920;SDS011;61064;51.654;5.476;2023-02-21T07:11:29;57.60;;;15.70;;
72920;SDS011;61064;51.654;5.476;2023-02-21T07:13:57;51.97;;;16.83;;
72920;SDS011;61064;51.654;5.476;2023-02-21T07:16:23;57.40;;;15.82;;
72920;SDS011;61064;51.654;5.476;2023-02-21T07:18:49;63.17;;;17.23;;
72920;SDS011;61064;51.654;5.476;2023-02-21T07:21:14;59.80;;;15.07;;
72920;SDS011;61064;51.654;5.476;2023-02-21T07:23:44;62.83;;;16.53;;
72920;SDS011;61064;51.654;5.476;2023-02-21T07:26:10;61.75;;;16.65;;
72920;SDS011;61064;51.654;5.476;2023-02-21T07:28:36;58.38;;;16.48;;
72920;SDS011;61064;51.654;5.476;2023-02-21T07:31:02;62.10;;;15.47;;
72920;SDS011;61064;51.654;5.476;2023-02-21T07:33:27;60.05;;;14.82;;
72920;SDS011;61064;51.654;5.476;2023-02-21T07:35:53;59.70;;;15.47;;
72920;SDS011;61064;51.654;5.476;2023-02-21T07:38:26;55.65;;;15.23;;
72920;SDS011;61064;51.654;5.476;2023-02-21T07:40:59;60.37;;;14.70;;
72920;SDS011;61064;51.654;5.476;2023-02-21T07:43:26;56.67;;;15.00;;
72920;SDS011;61064;51.654;5.476;2023-02-21T07:45:53;60.55;;;15.45;;
72920;SDS011;61064;51.654;5.476;2023-02-21T07:48:19;54.13;;;15.60;;
72920;SDS011;61064;51.654;5.476;2023-02-21T07:50:45;58.65;;;14.68;;
72920;SDS011;61064;51.654;5.476;2023-02-21T07:53:11;55.38;;;15.00;;
72920;SDS011;61064;51.654;5.476;2023-02-21T07:55:37;59.03;;;14.50;;
72920;SDS011;61064;51.654;5.476;2023-02-21T07:58:03;64.45;;;15.60;;
72920;SDS011;61064;51.654;5.476;2023-02-21T08:00:29;51.47;;;13.60;;
72920;SDS011;61064;51.654;5.476;2023-02-21T08:02:55;55.83;;;14.07;;
72920;SDS011;61064;51.654;5.476;2023-02-21T08:05:21;54.67;;;14.43;;
72920;SDS011;61064;51.654;5.476;2023-02-21T08:07:46;57.40;;;14.10;;
72920;SDS011;61064;51.654;5.476;2023-02-21T08:10:13;55.63;;;13.93;;
72920;SDS011;61064;51.654;5.476;2023-02-21T08:12:44;56.33;;;14.50;;
72920;SDS011;61064;51.654;5.476;2023-02-21T08:15:10;52.23;;;13.23;;
72920;SDS011;61064;51.654;5.476;2023-02-21T08:17:35;51.30;;;13.73;;
72920;SDS011;61064;51.654;5.476;2023-02-21T08:20:00;49.43;;;13.70;;
72920;SDS011;61064;51.654;5.476;2023-02-21T08:22:26;52.13;;;13.40;;
72920;SDS011;61064;51.654;5.476;2023-02-21T08:24:51;53.80;;;13.97;;
72920;SDS011;61064;51.654;5.476;2023-02-21T08:27:17;53.53;;;13.00;;
72920;SDS011;61064;51.654;5.476;2023-02-21T08:29:43;51.13;;;14.00;;
72920;SDS011;61064;51.654;5.476;2023-02-21T08:32:09;51.10;;;13.18;;
72920;SDS011;61064;51.654;5.476;2023-02-21T08:34:34;50.00;;;13.45;;
72920;SDS011;61064;51.654;5.476;2023-02-21T08:37:00;43.77;;;12.23;;
72920;SDS011;61064;51.654;5.476;2023-02-21T08:39:25;44.63;;;13.07;;
72920;SDS011;61064;51.654;5.476;2023-02-21T08:41:54;47.37;;;12.63;;
72920;SDS011;61064;51.654;5.476;2023-02-21T08:44:20;35.97;;;11.10;;
72920;SDS011;61064;51.654;5.476;2023-02-21T08:46:46;36.87;;;10.53;;
72920;SDS011;61064;51.654;5.476;2023-02-21T08:49:11;39.58;;;10.80;;
72920;SDS011;61064;51.654;5.476;2023-02-21T08:51:37;41.67;;;11.20;;
72920;SDS011;61064;51.654;5.476;2023-02-21T08:54:04;40.85;;;10.38;;
72920;SDS011;61064;51.654;5.476;2023-02-21T08:56:30;41.65;;;11.30;;
72920;SDS011;61064;51.654;5.476;2023-02-21T08:58:56;39.67;;;10.87;;
72920;SDS011;61064;51.654;5.476;2023-02-21T09:01:22;39.50;;;10.10;;
72920;SDS011;61064;51.654;5.476;2023-02-21T09:03:48;34.78;;;9.75;;
72920;SDS011;61064;51.654;5.476;2023-02-21T09:06:14;36.63;;;10.17;;
72920;SDS011;61064;51.654;5.476;2023-02-21T09:08:40;37.97;;;10.23;;
72920;SDS011;61064;51.654;5.476;2023-02-21T09:11:06;40.73;;;9.97;;
72920;SDS011;61064;51.654;5.476;2023-02-21T09:13:32;34.63;;;9.02;;
72920;SDS011;61064;51.654;5.476;2023-02-21T09:16:01;36.13;;;9.38;;
72920;SDS011;61064;51.654;5.476;2023-02-21T09:18:28;36.55;;;8.90;;
72920;SDS011;61064;51.654;5.476;2023-02-21T09:20:55;34.40;;;9.80;;
72920;SDS011;61064;51.654;5.476;2023-02-21T09:23:22;33.58;;;8.85;;
72920;SDS011;61064;51.654;5.476;2023-02-21T09:25:50;33.03;;;8.52;;
72920;SDS011;61064;51.654;5.476;2023-02-21T09:28:15;32.63;;;9.35;;
72920;SDS011;61064;51.654;5.476;2023-02-21T09:30:41;30.40;;;8.70;;
72920;SDS011;61064;51.654;5.476;2023-02-21T09:33:07;30.92;;;9.27;;
72920;SDS011;61064;51.654;5.476;2023-02-21T09:35:33;27.97;;;8.33;;
72920;SDS011;61064;51.654;5.476;2023-02-21T09:37:59;30.77;;;9.20;;
72920;SDS011;61064;51.654;5.476;2023-02-21T09:43:06;26.42;;;8.20;;
72920;SDS011;61064;51.654;5.476;2023-02-21T09:45:39;26.57;;;8.27;;
72920;SDS011;61064;51.654;5.476;2023-02-21T09:48:15;28.83;;;8.07;;
72920;SDS011;61064;51.654;5.476;2023-02-21T09:50:45;25.50;;;7.70;;
72920;SDS011;61064;51.654;5.476;2023-02-21T09:53:16;27.33;;;7.95;;
72920;SDS011;61064;51.654;5.476;2023-02-21T09:55:49;29.33;;;8.32;;
72920;SDS011;61064;51.654;5.476;2023-02-21T09:58:18;27.23;;;7.80;;
72920;SDS011;61064;51.654;5.476;2023-02-21T10:00:45;25.33;;;7.70;;
72920;SDS011;61064;51.654;5.476;2023-02-21T10:17:48;22.60;;;7.63;;
72920;SDS011;61064;51.654;5.476;2023-02-21T10:20:44;29.10;;;7.88;;
72920;SDS011;61064;51.654;5.476;2023-02-21T10:23:14;27.65;;;7.82;;
72920;SDS011;61064;51.654;5.476;2023-02-21T10:25:43;27.13;;;7.87;;
72920;SDS011;61064;51.654;5.476;2023-02-21T10:28:17;27.08;;;7.70;;
72920;SDS011;61064;51.654;5.476;2023-02-21T10:30:45;23.48;;;7.75;;
72920;SDS011;61064;51.654;5.476;2023-02-21T10:33:13;27.33;;;8.57;;
72920;SDS011;61064;51.654;5.476;2023-02-21T10:35:39;21.80;;;7.60;;
72920;SDS011;61064;51.654;5.476;2023-02-21T10:38:23;24.23;;;8.03;;
72920;SDS011;61064;51.654;5.476;2023-02-21T10:40:55;26.00;;;7.80;;
72920;SDS011;61064;51.654;5.476;2023-02-21T10:46:26;24.27;;;8.00;;
72920;SDS011;61064;51.654;5.476;2023-02-21T10:48:58;26.95;;;7.93;;
72920;SDS011;61064;51.654;5.476;2023-02-21T10:51:46;26.77;;;8.03;;
72920;SDS011;61064;51.654;5.476;2023-02-21T10:54:26;27.60;;;8.45;;
72920;SDS011;61064;51.654;5.476;2023-02-21T10:56:51;31.43;;;8.70;;
72920;SDS011;61064;51.654;5.476;2023-02-21T10:59:24;27.75;;;7.82;;
72920;SDS011;61064;51.654;5.476;2023-02-21T11:01:52;25.85;;;7.88;;
72920;SDS011;61064;51.654;5.476;2023-02-21T11:06:45;26.57;;;9.23;;
72920;SDS011;61064;51.654;5.476;2023-02-21T11:09:32;28.55;;;8.35;;
72920;SDS011;61064;51.654;5.476;2023-02-21T11:12:17;26.47;;;8.37;;
72920;SDS011;61064;51.654;5.476;2023-02-21T11:17:18;26.30;;;8.15;;
72920;SDS011;61064;51.654;5.476;2023-02-21T11:19:53;26.73;;;8.50;;
72920;SDS011;61064;51.654;5.476;2023-02-21T11:22:37;26.98;;;8.63;;
72920;SDS011;61064;51.654;5.476;2023-02-21T11:25:26;24.70;;;7.53;;
72920;SDS011;61064;51.654;5.476;2023-02-21T11:27:58;27.27;;;7.82;;
72920;SDS011;61064;51.654;5.476;2023-02-21T11:30:27;26.40;;;7.95;;
72920;SDS011;61064;51.654;5.476;2023-02-21T11:32:56;26.10;;;7.28;;
72920;SDS011;61064;51.654;5.476;2023-02-21T11:35:26;23.67;;;8.18;;
72920;SDS011;61064;51.654;5.476;2023-02-21T11:41:00;26.05;;;8.05;;
72920;SDS011;61064;51.654;5.476;2023-02-21T11:43:30;24.70;;;8.00;;
72920;SDS011;61064;51.654;5.476;2023-02-21T11:46:04;26.88;;;7.57;;
72920;SDS011;61064;51.654;5.476;2023-02-21T11:49:17;25.00;;;8.07;;
72920;SDS011;61064;51.654;5.476;2023-02-21T11:54:11;25.90;;;7.65;;
72920;SDS011;61064;51.654;5.476;2023-02-21T12:04:58;25.48;;;8.00;;
72920;SDS011;61064;51.654;5.476;2023-02-21T12:07:51;25.80;;;8.15;;
72920;SDS011;61064;51.654;5.476;2023-02-21T12:16:12;22.92;;;8.45;;
72920;SDS011;61064;51.654;5.476;2023-02-21T12:18:50;22.38;;;7.47;;
72920;SDS011;61064;51.654;5.476;2023-02-21T12:29:35;22.90;;;7.20;;
72920;SDS011;61064;51.654;5.476;2023-02-21T12:40:59;22.40;;;6.90;;
72920;SDS011;61064;51.654;5.476;2023-02-21T12:51:44;19.07;;;7.07;;
72920;SDS011;61064;51.654;5.476;2023-02-21T12:54:21;23.10;;;6.88;;
72920;SDS011;61064;51.654;5.476;2023-02-21T12:57:17;21.05;;;6.40;;
72920;SDS011;61064;51.654;5.476;2023-02-21T13:05:51;19.78;;;6.75;;
72920;SDS011;61064;51.654;5.476;2023-02-21T13:08:36;22.48;;;6.78;;
72920;SDS011;61064;51.654;5.476;2023-02-21T13:11:28;18.80;;;6.10;;
72920;SDS011;61064;51.654;5.476;2023-02-21T13:14:01;20.00;;;6.40;;
72920;SDS011;61064;51.654;5.476;2023-02-21T13:16:32;19.98;;;6.20;;
72920;SDS011;61064;51.654;5.476;2023-02-21T13:19:01;18.50;;;6.30;;
72920;SDS011;61064;51.654;5.476;2023-02-21T13:32:50;17.75;;;5.88;;
72920;SDS011;61064;51.654;5.476;2023-02-21T13:35:20;16.30;;;5.38;;
72920;SDS011;61064;51.654;5.476;2023-02-21T13:37:51;15.43;;;5.20;;
72920;SDS011;61064;51.654;5.476;2023-02-21T13:40:53;15.13;;;5.40;;
72920;SDS011;61064;51.654;5.476;2023-02-21T13:43:29;16.73;;;5.65;;
72920;SDS011;61064;51.654;5.476;2023-02-21T14:02:59;13.50;;;4.70;;
72920;SDS011;61064;51.654;5.476;2023-02-21T14:15:57;14.47;;;4.90;;
72920;SDS011;61064;51.654;5.476;2023-02-21T14:18:46;14.18;;;4.90;;
72920;SDS011;61064;51.654;5.476;2023-02-21T14:21:28;16.02;;;5.15;;
72920;SDS011;61064;51.654;5.476;2023-02-21T14:24:03;14.97;;;5.37;;
72920;SDS011;61064;51.654;5.476;2023-02-21T14:26:43;14.90;;;5.47;;
72920;SDS011;61064;51.654;5.476;2023-02-21T14:37:31;15.47;;;5.73;;
72920;SDS011;61064;51.654;5.476;2023-02-21T14:40:02;14.35;;;5.50;;
72920;SDS011;61064;51.654;5.476;2023-02-21T14:45:21;14.50;;;5.25;;
72920;SDS011;61064;51.654;5.476;2023-02-21T14:56:46;14.43;;;5.20;;
72920;SDS011;61064;51.654;5.476;2023-02-21T14:59:57;14.88;;;5.70;;
72920;SDS011;61064;51.654;5.476;2023-02-21T15:02:47;16.05;;;5.53;;
72920;SDS011;61064;51.654;5.476;2023-02-21T15:08:20;19.08;;;6.53;;
72920;SDS011;61064;51.654;5.476;2023-02-21T15:10:51;19.67;;;6.40;;
72920;SDS011;61064;51.654;5.476;2023-02-21T15:13:32;19.23;;;6.53;;
72920;SDS011;61064;51.654;5.476;2023-02-21T15:16:04;15.43;;;6.05;;
72920;SDS011;61064;51.654;5.476;2023-02-21T15:18:54;20.57;;;6.97;;
72920;SDS011;61064;51.654;5.476;2023-02-21T15:21:23;18.10;;;6.40;;
72920;SDS011;61064;51.654;5.476;2023-02-21T15:23:59;19.33;;;6.57;;
72920;SDS011;61064;51.654;5.476;2023-02-21T15:26:30;18.88;;;6.00;;
72920;SDS011;61064;51.654;5.476;2023-02-21T15:29:08;20.40;;;6.63;;
72920;SDS011;61064;51.654;5.476;2023-02-21T15:31:54;20.73;;;7.10;;
72920;SDS011;61064;51.654;5.476;2023-02-21T15:34:24;23.15;;;8.40;;
72920;SDS011;61064;51.654;5.476;2023-02-21T15:37:39;24.07;;;8.40;;
72920;SDS011;61064;51.654;5.476;2023-02-21T15:39:56;29.77;;;9.40;;
72920;SDS011;61064;51.654;5.476;2023-02-21T15:42:26;25.50;;;8.52;;
72920;SDS011;61064;51.654;5.476;2023-02-21T15:44:57;26.85;;;9.38;;
72920;SDS011;61064;51.654;5.476;2023-02-21T15:47:26;25.13;;;9.07;;
72920;SDS011;61064;51.654;5.476;2023-02-21T15:52:55;24.95;;;7.70;;
72920;SDS011;61064;51.654;5.476;2023-02-21T15:55:42;23.25;;;8.40;;
72920;SDS011;61064;51.654;5.476;2023-02-21T15:58:24;24.98;;;8.65;;
72920;SDS011;61064;51.654;5.476;2023-02-21T16:01:04;27.05;;;9.65;;
72920;SDS011;61064;51.654;5.476;2023-02-21T16:03:39;26.63;;;9.03;;
72920;SDS011;61064;51.654;5.476;2023-02-21T16:08:48;27.23;;;9.10;;
72920;SDS011;61064;51.654;5.476;2023-02-21T16:20:00;24.65;;;8.57;;
72920;SDS011;61064;51.654;5.476;2023-02-21T16:22:40;24.83;;;8.98;;
72920;SDS011;61064;51.654;5.476;2023-02-21T16:27:35;28.03;;;9.23;;
72920;SDS011;61064;51.654;5.476;2023-02-21T16:30:05;27.73;;;9.87;;
72920;SDS011;61064;51.654;5.476;2023-02-21T16:32:35;35.20;;;10.55;;
72920;SDS011;61064;51.654;5.476;2023-02-21T16:35:03;33.15;;;10.98;;
72920;SDS011;61064;51.654;5.476;2023-02-21T16:37:28;34.57;;;11.10;;
72920;SDS011;61064;51.654;5.476;2023-02-21T16:39:54;33.67;;;11.13;;
72920;SDS011;61064;51.654;5.476;2023-02-21T16:42:19;32.93;;;11.00;;
72920;SDS011;61064;51.654;5.476;2023-02-21T16:44:45;33.53;;;10.90;;
72920;SDS011;61064;51.654;5.476;2023-02-21T16:47:15;36.28;;;12.20;;
72920;SDS011;61064;51.654;5.476;2023-02-21T16:49:42;34.30;;;11.80;;
72920;SDS011;61064;51.654;5.476;2023-02-21T16:52:14;31.60;;;10.73;;
72920;SDS011;61064;51.654;5.476;2023-02-21T16:54:41;39.22;;;11.82;;
72920;SDS011;61064;51.654;5.476;2023-02-21T16:57:06;29.83;;;9.67;;
72920;SDS011;61064;51.654;5.476;2023-02-21T16:59:33;31.35;;;10.82;;
72920;SDS011;61064;51.654;5.476;2023-02-21T17:02:00;40.47;;;11.65;;
72920;SDS011;61064;51.654;5.476;2023-02-21T17:04:26;35.75;;;11.50;;
72920;SDS011;61064;51.654;5.476;2023-02-21T17:06:53;37.10;;;12.03;;
72920;SDS011;61064;51.654;5.476;2023-02-21T17:09:20;37.28;;;11.93;;
72920;SDS011;61064;51.654;5.476;2023-02-21T17:11:47;35.85;;;10.68;;
72920;SDS011;61064;51.654;5.476;2023-02-21T17:14:13;36.53;;;11.60;;
72920;SDS011;61064;51.654;5.476;2023-02-21T17:16:39;31.80;;;11.45;;
72920;SDS011;61064;51.654;5.476;2023-02-21T17:19:08;34.25;;;11.48;;
72920;SDS011;61064;51.654;5.476;2023-02-21T17:21:36;33.37;;;10.77;;
72920;SDS011;61064;51.654;5.476;2023-02-21T17:24:02;34.40;;;11.50;;
72920;SDS011;61064;51.654;5.476;2023-02-21T17:26:27;35.97;;;11.67;;
72920;SDS011;61064;51.654;5.476;2023-02-21T17:28:52;36.90;;;11.77;;
72920;SDS011;61064;51.654;5.476;2023-02-21T17:31:18;36.13;;;11.53;;
72920;SDS011;61064;51.654;5.476;2023-02-21T17:33:43;36.03;;;11.67;;
72920;SDS011;61064;51.654;5.476;2023-02-21T17:36:16;36.95;;;11.88;;
72920;SDS011;61064;51.654;5.476;2023-02-21T17:38:42;36.65;;;11.57;;
72920;SDS011;61064;51.654;5.476;2023-02-21T17:41:09;38.45;;;11.27;;
72920;SDS011;61064;51.654;5.476;2023-02-21T17:43:35;34.33;;;10.83;;
72920;SDS011;61064;51.654;5.476;2023-02-21T17:46:00;31.30;;;10.73;;
72920;SDS011;61064;51.654;5.476;2023-02-21T17:48:26;36.88;;;11.77;;
72920;SDS011;61064;51.654;5.476;2023-02-21T17:50:51;34.50;;;11.13;;
72920;SDS011;61064;51.654;5.476;2023-02-21T17:53:18;35.63;;;11.88;;
72920;SDS011;61064;51.654;5.476;2023-02-21T17:55:44;38.07;;;12.40;;
72920;SDS011;61064;51.654;5.476;2023-02-21T17:58:09;37.23;;;12.57;;
72920;SDS011;61064;51.654;5.476;2023-02-21T18:00:35;36.20;;;11.47;;
72920;SDS011;61064;51.654;5.476;2023-02-21T18:03:01;38.78;;;12.48;;
72920;SDS011;61064;51.654;5.476;2023-02-21T18:05:31;39.40;;;12.60;;
72920;SDS011;61064;51.654;5.476;2023-02-21T18:07:57;38.75;;;12.65;;